Sherburn, Minnesota
Current Conditions -  °F | °C
As of 11:14 PM on Thursday 30 Oct 2014 (Local Time) from KMJQ Reporting Station
Scattered Clouds Scattered Clouds  
Wind Chill: 24°   Ceiling: Unl
Heat Index: 34°   Visibility: 10mi
Dew Point: 21°   Wind: 15mph
Humidity: 60%   Direction: 340°NNW
Pressure: 30.37"   Gusts: 25mph
Location:  43.65°N, 94.73°W
Report Text: KMJQ 310414Z AUTO 34013G22KT 10SM SCT033 01/M06 A3037 RMK AO2
Loading
Personal Weather Stations






























Interactive Weather Map
Tropical Storm Tracking
New forecast layout! Learn more

10-Day Weather Forecast

Advertisements
Track Severe Weather on mobile